PWSweather.com
Personal Weather Stations
Station Observations
METEOGM
JesiIT 60035

JesiIT 60035

Lat: 43.525017, Lon: 13.20302

Elevation: 633

Station Type: Honeywell TE923 IROX PRO-X2

http://www.meteogm.it

Latest ConditionsUpdated 4:55:05 AM GMT+01:01 Wednesday, Aug 21, 2019
Currently Today's Max Today's Min Today's Average
Temperature 77.1°F25.1°C 77.9°F25.5°C 75.2°F24.0°C 76.8°F24.9°C
Dew Point 55.3°F12.9°C 55.5°F13.1°C 54.3°F12.4°C 55.0°F12.8°C
Winds Calm Calm 2.0 mph -3.2 kmh - - 0.5 mph 0.8 kmh
Wind Gusts 1.0 mph1.6 kmh 3.0 mph4.8 kmh - -
Humidity 47% 50% 45% 47%
Pressure 29.99 in1015.6 mb 30.00 in1015.9 mb 29.98 in1015.2 mb -
Hour Temp Dew Point Humidity Winds Wind Gusts Pressure Precip Precip Rate Daily Precip Total
04:55 AM 77.1°F25.1°C 55.3°F12.9°C 47% Calm Calm 1.0 mph1.6 kmh 29.99 in1015.6 mb 0.00 in0.0 mm 0.00 in0.0 mm 0.00 in0.0 mm
04:50 AM 77.3°F25.2°C 55.5°F13.1°C 47% Calm Calm 1.0 mph1.6 kmh 29.99 in1015.6 mb 0.00 in0.0 mm 0.00 in0.0 mm 0.00 in0.0 mm
04:45 AM 77.1°F25.1°C 55.3°F12.9°C 47% 1.0 mph W1.6 kmh W 2.0 mph3.2 kmh 29.99 in1015.6 mb 0.00 in0.0 mm 0.00 in0.0 mm 0.00 in0.0 mm
04:40 AM 77.1°F25.1°C 55.3°F12.9°C 47% 1.0 mph W1.6 kmh W 1.0 mph1.6 kmh 29.99 in1015.6 mb 0.00 in0.0 mm 0.00 in0.0 mm 0.00 in0.0 mm
04:35 AM 77.1°F25.1°C 55.3°F12.9°C 47% 1.0 mph W1.6 kmh W 1.0 mph1.6 kmh 29.99 in1015.6 mb 0.00 in0.0 mm 0.00 in0.0 mm 0.00 in0.0 mm
04:30 AM 77.0°F25.0°C 55.2°F12.9°C 47% 2.0 mph W3.2 kmh W 2.0 mph3.2 kmh 29.99 in1015.6 mb 0.00 in0.0 mm 0.00 in0.0 mm 0.00 in0.0 mm
04:25 AM 77.0°F25.0°C 55.2°F12.9°C 47% 2.0 mph W3.2 kmh W 3.0 mph4.8 kmh 29.99 in1015.6 mb 0.00 in0.0 mm 0.00 in0.0 mm 0.00 in0.0 mm
04:20 AM 76.8°F24.9°C 55.0°F12.8°C 47% 2.0 mph W3.2 kmh W 3.0 mph4.8 kmh 29.99 in1015.6 mb 0.00 in0.0 mm 0.00 in0.0 mm 0.00 in0.0 mm
04:15 AM 76.6°F24.8°C 55.4°F13.0°C 48% 2.0 mph W3.2 kmh W 2.0 mph3.2 kmh 29.99 in1015.6 mb 0.00 in0.0 mm 0.00 in0.0 mm 0.00 in0.0 mm
04:10 AM 76.2°F24.6°C 55.1°F12.8°C 48% 1.0 mph W1.6 kmh W 2.0 mph3.2 kmh 29.99 in1015.6 mb 0.00 in0.0 mm 0.00 in0.0 mm 0.00 in0.0 mm
04:05 AM 76.2°F24.6°C 55.1°F12.8°C 48% Calm Calm 1.0 mph1.6 kmh 29.99 in1015.6 mb 0.00 in0.0 mm 0.00 in0.0 mm 0.00 in0.0 mm
04:00 AM 76.4°F24.7°C 55.2°F12.9°C 48% Calm Calm 1.0 mph1.6 kmh 29.99 in1015.6 mb 0.00 in0.0 mm 0.00 in0.0 mm 0.00 in0.0 mm
03:55 AM 76.6°F24.8°C 54.8°F12.7°C 47% Calm Calm 1.0 mph1.6 kmh 29.99 in1015.6 mb 0.00 in0.0 mm 0.00 in0.0 mm 0.00 in0.0 mm
03:50 AM 76.8°F24.9°C 55.0°F12.8°C 47% Calm Calm 1.0 mph1.6 kmh 29.99 in1015.6 mb 0.00 in0.0 mm 0.00 in0.0 mm 0.00 in0.0 mm
03:45 AM 77.0°F25.0°C 55.2°F12.9°C 47% Calm Calm 1.0 mph1.6 kmh 29.99 in1015.6 mb 0.00 in0.0 mm 0.00 in0.0 mm 0.00 in0.0 mm
03:40 AM 77.1°F25.1°C 54.7°F12.6°C 46% Calm Calm 1.0 mph1.6 kmh 29.99 in1015.6 mb 0.00 in0.0 mm 0.00 in0.0 mm 0.00 in0.0 mm
03:35 AM 77.1°F25.1°C 54.7°F12.6°C 46% Calm Calm 1.0 mph1.6 kmh 29.99 in1015.6 mb 0.00 in0.0 mm 0.00 in0.0 mm 0.00 in0.0 mm
03:30 AM 77.1°F25.1°C 54.7°F12.6°C 46% Calm Calm 1.0 mph1.6 kmh 29.98 in1015.2 mb 0.00 in0.0 mm 0.00 in0.0 mm 0.00 in0.0 mm
03:25 AM 77.3°F25.2°C 54.9°F12.7°C 46% Calm Calm 1.0 mph1.6 kmh 29.98 in1015.2 mb 0.00 in0.0 mm 0.00 in0.0 mm 0.00 in0.0 mm
03:20 AM 77.7°F25.4°C 55.2°F12.9°C 46% Calm Calm -- 29.98 in1015.2 mb 0.00 in0.0 mm 0.00 in0.0 mm 0.00 in0.0 mm
03:15 AM 77.9°F25.5°C 55.4°F13.0°C 46% Calm Calm 1.0 mph1.6 kmh 29.98 in1015.2 mb 0.00 in0.0 mm 0.00 in0.0 mm 0.00 in0.0 mm
03:10 AM 77.9°F25.5°C 55.4°F13.0°C 46% Calm Calm -- 29.98 in1015.2 mb 0.00 in0.0 mm 0.00 in0.0 mm 0.00 in0.0 mm
03:05 AM 77.7°F25.4°C 55.2°F12.9°C 46% Calm Calm 1.0 mph1.6 kmh 29.98 in1015.2 mb 0.00 in0.0 mm 0.00 in0.0 mm 0.00 in0.0 mm
03:00 AM 77.5°F25.3°C 55.1°F12.8°C 46% Calm Calm 1.0 mph1.6 kmh 29.98 in1015.2 mb 0.00 in0.0 mm 0.00 in0.0 mm 0.00 in0.0 mm
02:55 AM 77.9°F25.5°C 54.8°F12.7°C 45% Calm Calm 1.0 mph1.6 kmh 29.98 in1015.2 mb 0.00 in0.0 mm 0.00 in0.0 mm 0.00 in0.0 mm
02:50 AM 77.7°F25.4°C 54.6°F12.6°C 45% Calm Calm -- 29.98 in1015.2 mb 0.00 in0.0 mm 0.00 in0.0 mm 0.00 in0.0 mm
02:45 AM 77.5°F25.3°C 55.1°F12.8°C 46% 1.0 mph W1.6 kmh W 1.0 mph1.6 kmh 29.98 in1015.2 mb 0.00 in0.0 mm 0.00 in0.0 mm 0.00 in0.0 mm
02:40 AM 77.7°F25.4°C 55.2°F12.9°C 46% 1.0 mph W1.6 kmh W 1.0 mph1.6 kmh 29.98 in1015.2 mb 0.00 in0.0 mm 0.00 in0.0 mm 0.00 in0.0 mm
02:35 AM 77.5°F25.3°C 55.1°F12.8°C 46% 2.0 mph W3.2 kmh W 2.0 mph3.2 kmh 29.98 in1015.2 mb 0.00 in0.0 mm 0.00 in0.0 mm 0.00 in0.0 mm
02:30 AM 77.1°F25.1°C 54.7°F12.6°C 46% 1.0 mph W1.6 kmh W 2.0 mph3.2 kmh 29.99 in1015.6 mb 0.00 in0.0 mm 0.00 in0.0 mm 0.00 in0.0 mm
02:25 AM 76.1°F24.5°C 54.9°F12.7°C 48% 1.0 mph NW1.6 kmh NW 1.0 mph1.6 kmh 29.99 in1015.6 mb 0.00 in0.0 mm 0.00 in0.0 mm 0.00 in0.0 mm
02:20 AM 75.7°F24.3°C 55.2°F12.9°C 49% 1.0 mph WSW1.6 kmh WSW 1.0 mph1.6 kmh 29.99 in1015.6 mb 0.00 in0.0 mm 0.00 in0.0 mm 0.00 in0.0 mm
02:15 AM 75.5°F24.2°C 55.0°F12.8°C 49% Calm Calm 1.0 mph1.6 kmh 29.99 in1015.6 mb 0.00 in0.0 mm 0.00 in0.0 mm 0.00 in0.0 mm
02:10 AM 75.2°F24.0°C 55.2°F12.9°C 50% Calm Calm 1.0 mph1.6 kmh 29.99 in1015.6 mb 0.00 in0.0 mm 0.00 in0.0 mm 0.00 in0.0 mm
02:05 AM 75.2°F24.0°C 54.7°F12.6°C 49% Calm Calm -- 29.99 in1015.6 mb 0.00 in0.0 mm 0.00 in0.0 mm 0.00 in0.0 mm
02:00 AM 75.3°F24.1°C 54.8°F12.7°C 49% Calm Calm -- 29.99 in1015.6 mb 0.00 in0.0 mm 0.00 in0.0 mm 0.00 in0.0 mm
01:55 AM 75.5°F24.2°C 55.0°F12.8°C 49% 1.0 mph W1.6 kmh W 1.0 mph1.6 kmh 29.99 in1015.6 mb 0.00 in0.0 mm 0.00 in0.0 mm 0.00 in0.0 mm
01:50 AM 75.5°F24.2°C 55.0°F12.8°C 49% 1.0 mph WNW1.6 kmh WNW 2.0 mph3.2 kmh 29.99 in1015.6 mb 0.00 in0.0 mm 0.00 in0.0 mm 0.00 in0.0 mm
01:45 AM 75.3°F24.1°C 55.4°F13.0°C 50% 1.0 mph W1.6 kmh W 2.0 mph3.2 kmh 29.99 in1015.6 mb 0.00 in0.0 mm 0.00 in0.0 mm 0.00 in0.0 mm
01:40 AM 75.3°F24.1°C 55.4°F13.0°C 50% 1.0 mph W1.6 kmh W 2.0 mph3.2 kmh 29.99 in1015.6 mb 0.00 in0.0 mm 0.00 in0.0 mm 0.00 in0.0 mm
01:35 AM 75.3°F24.1°C 54.8°F12.7°C 49% 1.0 mph WNW1.6 kmh WNW 2.0 mph3.2 kmh 29.99 in1015.6 mb 0.00 in0.0 mm 0.00 in0.0 mm 0.00 in0.0 mm
01:30 AM 75.9°F24.4°C 54.7°F12.6°C 48% Calm Calm 1.0 mph1.6 kmh 29.99 in1015.6 mb 0.00 in0.0 mm 0.00 in0.0 mm 0.00 in0.0 mm
01:25 AM 76.4°F24.7°C 55.2°F12.9°C 48% Calm Calm 1.0 mph1.6 kmh 29.99 in1015.6 mb 0.00 in0.0 mm 0.00 in0.0 mm 0.00 in0.0 mm
01:20 AM 76.4°F24.7°C 54.7°F12.6°C 47% Calm Calm 1.0 mph1.6 kmh 29.99 in1015.6 mb 0.00 in0.0 mm 0.00 in0.0 mm 0.00 in0.0 mm
01:15 AM 76.4°F24.7°C 54.7°F12.6°C 47% Calm Calm 1.0 mph1.6 kmh 29.99 in1015.6 mb 0.00 in0.0 mm 0.00 in0.0 mm 0.00 in0.0 mm
01:10 AM 77.0°F25.0°C 54.6°F12.6°C 46% Calm Calm 1.0 mph1.6 kmh 29.99 in1015.6 mb 0.00 in0.0 mm 0.00 in0.0 mm 0.00 in0.0 mm
01:05 AM 77.3°F25.2°C 54.9°F12.7°C 46% Calm Calm 1.0 mph1.6 kmh 29.99 in1015.6 mb 0.00 in0.0 mm 0.00 in0.0 mm 0.00 in0.0 mm
01:00 AM 77.5°F25.3°C 54.4°F12.4°C 45% Calm Calm 2.0 mph3.2 kmh 29.99 in1015.6 mb 0.00 in0.0 mm 0.00 in0.0 mm 0.00 in0.0 mm
12:55 AM 77.9°F25.5°C 54.8°F12.7°C 45% 1.0 mph W1.6 kmh W -- 29.99 in1015.6 mb 0.00 in0.0 mm 0.00 in0.0 mm 0.00 in0.0 mm
12:50 AM 77.9°F25.5°C 54.8°F12.7°C 45% 1.0 mph W1.6 kmh W 2.0 mph3.2 kmh 29.99 in1015.6 mb 0.00 in0.0 mm 0.00 in0.0 mm 0.00 in0.0 mm
12:45 AM 77.9°F25.5°C 54.8°F12.7°C 45% 1.0 mph W1.6 kmh W 3.0 mph4.8 kmh 29.99 in1015.6 mb 0.00 in0.0 mm 0.00 in0.0 mm 0.00 in0.0 mm
12:40 AM 77.7°F25.4°C 54.6°F12.6°C 45% Calm Calm 1.0 mph1.6 kmh 29.99 in1015.6 mb 0.00 in0.0 mm 0.00 in0.0 mm 0.00 in0.0 mm
12:35 AM 77.5°F25.3°C 54.4°F12.4°C 45% Calm Calm 2.0 mph3.2 kmh 29.99 in1015.6 mb 0.00 in0.0 mm 0.00 in0.0 mm 0.00 in0.0 mm
12:30 AM 77.3°F25.2°C 54.3°F12.4°C 45% Calm Calm 1.0 mph1.6 kmh 29.99 in1015.6 mb 0.00 in0.0 mm 0.00 in0.0 mm 0.00 in0.0 mm
12:25 AM 77.1°F25.1°C 54.7°F12.6°C 46% Calm Calm 1.0 mph1.6 kmh 29.99 in1015.6 mb 0.00 in0.0 mm 0.00 in0.0 mm 0.00 in0.0 mm
12:20 AM 77.0°F25.0°C 54.6°F12.6°C 46% Calm Calm 1.0 mph1.6 kmh 29.99 in1015.6 mb 0.00 in0.0 mm 0.00 in0.0 mm 0.00 in0.0 mm
12:15 AM 77.1°F25.1°C 54.7°F12.6°C 46% Calm Calm 1.0 mph1.6 kmh 29.99 in1015.6 mb 0.00 in0.0 mm 0.00 in0.0 mm 0.00 in0.0 mm
12:10 AM 77.1°F25.1°C 54.7°F12.6°C 46% Calm Calm 1.0 mph1.6 kmh 30.00 in1015.9 mb 0.00 in0.0 mm 0.00 in0.0 mm 0.00 in0.0 mm
12:05 AM 77.1°F25.1°C 54.7°F12.6°C 46% Calm Calm 1.0 mph1.6 kmh 30.00 in1015.9 mb 0.00 in0.0 mm 0.00 in0.0 mm 0.00 in0.0 mm
12:00 AM 77.1°F25.1°C 54.7°F12.6°C 46% Calm Calm 1.0 mph1.6 kmh 30.00 in1015.9 mb 0.00 in0.0 mm 0.00 in0.0 mm 0.00 in0.0 mm